Time;durP1;ratioP1;P1;durP2;ratioP2;P2;SDS_P1;SDS_P2;PMS_P1;PMS_P2;Temp;Humidity;BMP_temperature;BMP_pressure;BME280_temperature;BME280_humidity;BME280_pressure;Samples;Min_cycle;Max_cycle;Signal;HPM_P1;HPM_P2
2022/04/20 00:01:13;;;;;;;;;14.00;12.50;;;;;16.72;43.89;100765.84;5080738;28;45316;-78
2022/04/20 00:03:39;;;;;;;;;14.75;13.00;;;;;16.75;43.79;100778.13;5080308;28;45501;-78
2022/04/20 00:06:05;;;;;;;;;19.00;13.50;;;;;16.60;43.90;100752.03;5079307;28;45388;-77
2022/04/20 00:08:35;;;;;;;;;19.00;15.50;;;;;16.51;44.10;100747.81;5079263;28;45394;-77
2022/04/20 00:11:01;;;;;;;;;13.00;12.00;;;;;16.15;43.80;100673.72;5079724;28;45627;-77
2022/04/20 00:13:26;;;;;;;;;11.67;11.67;;;;;16.50;44.03;100730.22;5079718;28;46149;-77
2022/04/20 00:15:52;;;;;;;;;14.50;13.50;;;;;16.63;43.94;100762.53;5061374;28;45591;-78
2022/04/20 00:18:18;;;;;;;;;13.25;12.25;;;;;16.52;44.33;100749.56;5060785;28;45509;-78
2022/04/20 00:20:43;;;;;;;;;14.25;13.00;;;;;16.58;43.85;100756.47;5079468;28;45327;-77
2022/04/20 00:23:09;;;;;;;;;17.25;14.25;;;;;16.46;44.02;100736.47;5078753;28;46206;-78
2022/04/20 00:25:35;;;;;;;;;14.50;12.25;;;;;16.61;44.29;100772.28;5079161;28;45488;-77
2022/04/20 00:28:00;;;;;;;;;17.50;16.50;;;;;16.62;44.18;100768.75;5078198;28;45524;-72
2022/04/20 00:30:26;;;;;;;;;16.25;15.00;;;;;16.61;44.18;100770.53;5079354;28;45344;-76
2022/04/20 00:32:52;;;;;;;;;20.50;13.75;;;;;16.60;44.46;100768.75;5079071;28;46168;-73
2022/04/20 00:35:18;;;;;;;;;21.25;15.25;;;;;16.56;44.30;100760.94;5078515;28;45558;-78
2022/04/20 00:37:44;;;;;;;;;19.75;15.00;;;;;16.15;44.34;100699.28;5082692;28;45318;-77
2022/04/20 00:40:10;;;;;;;;;21.50;18.25;;;;;16.48;44.63;100756.69;5078406;28;45424;-73
2022/04/20 00:42:39;;;;;;;;;23.25;18.75;;;;;16.52;44.30;100768.06;5079164;28;45978;-76
2022/04/20 00:45:10;;;;;;;;;21.75;18.50;;;;;16.49;44.92;100768.13;5078980;28;45341;-77
2022/04/20 00:47:37;;;;;;;;;20.00;15.50;;;;;16.34;44.87;100737.63;5084189;28;45226;-76
2022/04/20 00:50:04;;;;;;;;;17.50;16.75;;;;;16.36;44.65;100738.47;5072413;28;45598;-73
2022/04/20 00:52:30;;;;;;;;;20.00;16.00;;;;;16.44;44.76;100755.00;5073246;27;45522;-72
2022/04/20 00:54:55;;;;;;;;;16.25;16.00;;;;;16.40;44.97;100752.50;5057690;28;45465;-72
2022/04/20 00:57:24;;;;;;;;;23.75;17.25;;;;;16.43;44.61;100760.34;5057855;28;45520;-72
2022/04/20 00:59:52;;;;;;;;;21.50;17.75;;;;;16.15;45.03;100713.34;5058006;28;45428;-69
2022/04/20 01:02:21;;;;;;;;;18.50;14.25;;;;;16.11;45.19;100698.47;5069308;28;46193;-71
2022/04/20 01:04:47;;;;;;;;;21.50;18.50;;;;;16.37;44.96;100748.13;5078384;28;45539;-78
2022/04/20 01:07:16;;;;;;;;;22.50;17.50;;;;;16.29;44.93;100734.22;5078432;28;45498;-70
2022/04/20 01:09:44;;;;;;;;;23.25;21.50;;;;;16.27;45.15;100731.59;5078616;28;45472;-70
2022/04/20 01:12:11;;;;;;;;;19.00;16.50;;;;;16.28;45.26;100738.63;5078193;28;45317;-71
2022/04/20 01:14:37;;;;;;;;;21.25;18.00;;;;;16.27;45.33;100742.16;5077795;28;45432;-70
2022/04/20 01:17:04;;;;;;;;;21.25;21.00;;;;;16.03;45.09;100706.56;5078041;28;45733;-76
2022/04/20 01:19:38;;;;;;;;;25.75;21.00;;;;;15.94;45.16;100684.75;5059632;28;45205;-72
2022/04/20 01:22:05;;;;;;;;;21.50;20.00;;;;;16.27;44.94;100744.78;5077529;28;46182;-77
2022/04/20 01:24:31;;;;;;;;;23.75;20.75;;;;;16.24;45.33;100742.22;5077922;28;45461;-76
2022/04/20 01:26:57;;;;;;;;;27.50;21.50;;;;;16.24;45.27;100738.72;5078044;28;45558;-75
2022/04/20 01:29:26;;;;;;;;;27.00;23.75;;;;;16.18;45.40;100729.13;5078134;28;45705;-74
2022/04/20 01:31:52;;;;;;;;;18.00;18.00;;;;;15.93;45.32;100693.59;5078088;28;46557;-72
2022/04/20 01:34:17;;;;;;;;;23.25;19.00;;;;;16.16;45.73;100732.72;5078000;28;45366;-74
2022/04/20 01:36:43;;;;;;;;;23.50;17.50;;;;;16.19;45.52;100741.47;5077588;28;45264;-75
2022/04/20 01:39:09;;;;;;;;;28.25;20.00;;;;;15.97;45.80;100704.06;5077957;28;45450;-76
2022/04/20 01:41:34;;;;;;;;;22.50;19.75;;;;;16.03;45.50;100719.75;5071439;28;46070;-77
2022/04/20 01:44:00;;;;;;;;;27.75;20.75;;;;;15.98;45.36;100707.56;5057286;28;45297;-75
2022/04/20 01:46:25;;;;;;;;;33.00;24.25;;;;;16.04;45.83;100723.28;5057577;28;45299;-72
2022/04/20 01:48:51;;;;;;;;;30.25;22.25;;;;;16.08;45.50;100735.53;5039834;28;45505;-77
2022/04/20 01:54:00;;;;;;;;;26.00;22.25;;;;;16.07;45.96;100741.72;5058528;28;45230;-75
2022/04/20 01:56:26;;;;;;;;;23.50;20.50;;;;;16.06;45.95;100742.59;5060622;28;45303;-76
2022/04/20 01:58:51;;;;;;;;;26.50;23.50;;;;;16.08;45.86;100754.03;5063168;28;45428;-75
2022/04/20 02:04:02;;;;;;;;;27.00;22.25;;;;;15.94;45.64;100722.59;5057242;28;45528;-75
2022/04/20 02:06:28;;;;;;;;;23.50;23.50;;;;;16.05;45.45;100740.88;5057961;28;45355;-76
2022/04/20 02:08:53;;;;;;;;;27.25;23.75;;;;;15.98;45.79;100728.69;5058448;28;45292;-75
2022/04/20 02:11:19;;;;;;;;;29.25;26.50;;;;;16.03;46.07;100748.81;5058484;28;45430;-77
2022/04/20 02:13:44;;;;;;;;;25.00;23.25;;;;;15.86;46.00;100711.31;5057319;28;45440;-72
2022/04/20 02:16:10;;;;;;;;;33.00;30.75;;;;;15.99;46.05;100731.31;5059103;28;45489;-77
2022/04/20 02:18:35;;;;;;;;;34.50;26.75;;;;;15.93;45.82;100720.88;5058330;28;45381;-75
2022/04/20 02:21:01;;;;;;;;;32.50;24.75;;;;;15.83;45.60;100703.47;5038890;28;45491;-75
2022/04/20 02:23:27;;;;;;;;;29.75;27.50;;;;;15.96;45.94;100726.06;5057032;28;45439;-77
2022/04/20 02:25:53;;;;;;;;;28.25;25.25;;;;;15.72;46.19;100685.19;5057142;28;45338;-73
2022/04/20 02:28:19;;;;;;;;;28.25;22.50;;;;;15.94;46.17;100716.44;5072360;28;45354;-73
2022/04/20 02:30:44;;;;;;;;;28.25;23.75;;;;;15.92;46.12;100711.19;5076650;28;45971;-76
2022/04/20 02:33:10;;;;;;;;;30.50;25.00;;;;;15.92;46.04;100719.09;5096055;27;45709;-74
2022/04/20 02:35:37;;;;;;;;;35.75;27.50;;;;;15.92;46.28;100705.03;5077927;28;46052;-75
2022/04/20 02:38:03;;;;;;;;;33.25;28.75;;;;;15.71;46.32;100677.28;5074011;28;45469;-71
2022/04/20 02:40:30;;;;;;;;;31.25;29.50;;;;;15.83;46.19;100695.56;5073670;28;45473;-74
2022/04/20 02:42:57;;;;;;;;;29.50;24.75;;;;;15.80;46.36;100685.03;5061194;28;45391;-73
2022/04/20 02:45:25;;;;;;;;;33.25;29.50;;;;;15.72;46.21;100671.13;5040012;28;45473;-73
2022/04/20 02:47:51;;;;;;;;;34.50;30.75;;;;;15.81;46.32;100686.78;5057267;28;45288;-74
2022/04/20 02:50:16;;;;;;;;;34.00;28.75;;;;;15.68;46.22;100667.63;5056504;28;46023;-76
2022/04/20 02:52:42;;;;;;;;;34.25;26.75;;;;;15.81;46.72;100698.22;5056221;28;45255;-75
2022/04/20 02:55:07;;;;;;;;;28.25;27.25;;;;;15.80;46.79;100692.94;5056657;28;45479;-73
2022/04/20 02:57:34;;;;;;;;;37.75;30.00;;;;;15.78;46.68;100694.75;5059136;28;45482;-75
2022/04/20 02:59:59;;;;;;;;;35.50;28.75;;;;;15.67;46.61;100676.47;5059538;28;45567;-75
2022/04/20 03:02:25;;;;;;;;;29.00;26.25;;;;;15.57;46.85;100661.72;5070987;28;45436;-76
2022/04/20 03:04:51;;;;;;;;;35.25;26.75;;;;;15.68;46.59;100671.16;5072342;27;45607;-74
2022/04/20 03:07:16;;;;;;;;;36.00;32.50;;;;;15.73;46.92;100678.13;5072059;28;46346;-75
2022/04/20 03:09:42;;;;;;;;;37.00;28.25;;;;;15.68;46.53;100671.16;5054846;28;45561;-75
2022/04/20 03:12:08;;;;;;;;;30.25;26.50;;;;;15.69;46.39;100670.25;5076792;28;45497;-77
2022/04/20 03:14:34;;;;;;;;;31.00;26.50;;;;;15.49;47.22;100640.72;5078081;28;45326;-75
2022/04/20 03:17:00;;;;;;;;;34.75;27.75;;;;;15.60;46.94;100657.22;5078162;28;45532;-77
2022/04/20 03:19:25;;;;;;;;;36.00;33.00;;;;;15.69;47.09;100675.53;5077009;28;45302;-72
2022/04/20 03:21:51;;;;;;;;;31.50;27.50;;;;;15.68;46.85;100676.44;5076256;28;45303;-77
2022/04/20 03:24:16;;;;;;;;;28.50;26.50;;;;;15.44;47.11;100629.41;5080953;28;45554;-77
2022/04/20 03:26:42;;;;;;;;;41.25;32.50;;;;;15.58;47.21;100674.88;5085468;28;45436;-77
2022/04/20 03:29:08;;;;;;;;;39.25;30.00;;;;;15.64;46.82;100684.47;5063202;28;45600;-77
2022/04/20 03:31:34;;;;;;;;;38.75;28.00;;;;;15.55;47.32;100666.16;5080287;28;45329;-78
2022/04/20 03:34:01;;;;;;;;;37.75;32.00;;;;;15.47;46.79;100668.91;5082053;28;45433;-77
2022/04/20 03:36:27;;;;;;;;;34.50;31.75;;;;;15.58;46.89;100690.72;5083363;28;45536;-75
2022/04/20 03:38:53;;;;;;;;;39.50;31.50;;;;;15.00;47.05;100586.28;5083004;28;45737;-76
2022/04/20 03:41:18;;;;;;;;;32.50;28.00;;;;;15.57;46.86;100702.19;5076508;27;45426;-70
2022/04/20 03:43:45;;;;;;;;;40.75;32.75;;;;;15.56;46.75;100695.13;5075895;28;45327;-72
2022/04/20 03:46:11;;;;;;;;;39.75;32.50;;;;;15.45;46.80;100671.59;5065409;28;45587;-70
2022/04/20 03:48:37;;;;;;;;;35.25;30.50;;;;;15.60;46.81;100695.97;5082770;28;45286;-71
2022/04/20 03:51:03;;;;;;;;;35.75;30.25;;;;;15.31;47.06;100649.03;5079775;28;45402;-74
2022/04/20 03:53:28;;;;;;;;;40.00;31.00;;;;;15.52;46.73;100695.22;5083463;28;45212;-73
2022/04/20 03:55:54;;;;;;;;;37.25;33.00;;;;;15.63;46.86;100717.03;5083967;28;45285;-77
2022/04/20 03:58:19;;;;;;;;;35.75;33.25;;;;;15.55;46.76;100706.63;5083773;28;46335;-74
2022/04/20 04:00:45;;;;;;;;;43.75;33.25;;;;;15.51;47.29;100707.56;5082653;28;45508;-73
2022/04/20 04:03:14;;;;;;;;;40.50;30.00;;;;;15.54;47.10;100714.56;5084480;28;45543;-74
2022/04/20 04:05:40;;;;;;;;;44.50;35.50;;;;;15.59;46.67;100725.88;5083260;28;45445;-73
2022/04/20 04:08:06;;;;;;;;;44.25;34.50;;;;;15.56;47.15;100724.19;5082324;28;45318;-74
2022/04/20 04:10:32;;;;;;;;;40.00;33.25;;;;;15.50;47.09;100710.25;5085031;28;45661;-77
2022/04/20 04:12:58;;;;;;;;;44.25;34.00;;;;;15.45;47.17;100708.56;5084730;28;45399;-75
2022/04/20 04:15:23;;;;;;;;;44.25;32.50;;;;;15.46;46.86;100701.50;5084774;28;45507;-77
2022/04/20 04:17:54;;;;;;;;;39.50;32.25;;;;;15.11;47.20;100642.31;5083894;28;45476;-77
2022/04/20 04:20:21;;;;;;;;;40.25;34.50;;;;;15.46;47.10;100702.38;5083106;28;45350;-71
2022/04/20 04:22:49;;;;;;;;;40.25;33.75;;;;;15.24;47.00;100670.22;5083106;28;45496;-74
2022/04/20 04:25:15;;;;;;;;;40.50;34.00;;;;;15.38;47.32;100687.59;5082953;28;45353;-75
2022/04/20 04:27:40;;;;;;;;;38.50;34.00;;;;;15.37;47.16;100699.03;5080551;28;46173;-72
2022/04/20 04:30:07;;;;;;;;;47.50;33.00;;;;;15.14;47.18;100671.31;5080896;28;45293;-75
2022/04/20 04:32:33;;;;;;;;;39.25;34.25;;;;;15.42;46.81;100707.72;5082244;28;45397;-72
2022/04/20 04:35:02;;;;;;;;;48.50;36.00;;;;;15.37;46.94;100702.53;5084145;27;45481;-75
2022/04/20 04:37:28;;;;;;;;;39.00;34.00;;;;;15.23;47.23;100681.69;5078353;28;45515;-74
2022/04/20 04:39:54;;;;;;;;;45.50;36.25;;;;;15.38;47.10;100713.97;5085982;28;45394;-76
2022/04/20 04:42:20;;;;;;;;;45.00;36.50;;;;;15.32;47.20;100700.88;5070736;28;45589;-71
2022/04/20 04:44:45;;;;;;;;;41.75;36.00;;;;;15.38;46.94;100712.22;5059741;28;45446;-71
2022/04/20 04:49:57;;;;;;;;;48.25;37.00;;;;;15.27;46.94;100712.38;5060181;28;45422;-72
2022/04/20 04:52:23;;;;;;;;;47.50;35.00;;;;;15.34;46.65;100722.84;5058665;28;45481;-69
2022/04/20 04:54:48;;;;;;;;;49.50;34.00;;;;;15.28;47.00;100715.91;5059758;28;45510;-70
2022/04/20 04:57:14;;;;;;;;;42.25;35.50;;;;;15.13;46.57;100689.78;5059780;28;45630;-75
2022/04/20 04:59:41;;;;;;;;;43.25;35.75;;;;;15.26;46.95;100713.31;5060216;28;45434;-75
2022/04/20 05:02:07;;;;;;;;;40.75;35.50;;;;;15.34;46.89;100736.03;5059444;28;45374;-76
2022/04/20 05:04:37;;;;;;;;;45.00;36.50;;;;;15.32;46.61;100728.13;5062635;28;45281;-72
2022/04/20 05:07:04;;;;;;;;;49.50;36.25;;;;;15.33;46.53;100734.28;5065536;28;46275;-76
2022/04/20 05:09:30;;;;;;;;;40.00;35.00;;;;;15.13;46.71;100693.28;5066143;28;45623;-75
2022/04/20 05:11:55;;;;;;;;;40.00;35.25;;;;;14.80;46.73;100624.41;5061973;28;45514;-77
2022/04/20 05:14:21;;;;;;;;;46.75;35.50;;;;;15.22;46.73;100701.03;5061652;28;45371;-78
2022/04/20 05:16:47;;;;;;;;;45.75;37.75;;;;;15.34;46.57;100722.84;5065375;28;45430;-73
2022/04/20 05:19:12;;;;;;;;;44.50;36.75;;;;;15.29;46.61;100711.50;5042175;28;45327;-74
2022/04/20 05:21:38;;;;;;;;;43.50;36.50;;;;;15.34;47.01;100707.88;5062844;28;45442;-75
2022/04/20 05:24:05;;;;;;;;;53.50;37.25;;;;;15.10;46.53;100682.81;5060312;28;45608;-76
2022/04/20 05:26:30;;;;;;;;;47.25;36.50;;;;;15.27;46.94;100709.75;5063278;28;45477;-75
2022/04/20 05:28:56;;;;;;;;;46.75;36.50;;;;;15.30;47.02;100707.97;5066848;28;45402;-76
2022/04/20 05:31:22;;;;;;;;;40.25;34.00;;;;;15.34;47.01;100721.06;5069505;28;45471;-76
2022/04/20 05:33:49;;;;;;;;;48.25;35.00;;;;;15.37;47.04;100731.56;5071592;28;45505;-77
2022/04/20 05:36:18;;;;;;;;;44.50;36.75;;;;;15.39;46.81;100731.53;5060043;28;46231;-77
2022/04/20 05:41:42;;;;;;;;;39.25;33.00;;;;;15.12;46.42;100694.19;5060716;28;45367;-72
2022/04/20 05:44:09;;;;;;;;;45.50;35.25;;;;;15.45;46.90;100744.66;5062532;28;45402;-78
2022/04/20 05:46:36;;;;;;;;;43.00;35.50;;;;;15.44;48.34;100725.28;5061892;28;46316;-77
2022/04/20 05:49:02;;;;;;;;;41.25;34.75;;;;;15.56;49.09;100739.16;5060368;28;45251;-78
2022/04/20 05:51:28;;;;;;;;;41.50;35.50;;;;;15.44;47.67;100711.22;5060027;28;45573;-78
2022/04/20 05:53:54;;;;;;;;;44.00;36.50;;;;;15.53;47.91;100691.72;5058581;28;45429;-76
2022/04/20 05:56:20;;;;;;;;;44.50;35.50;;;;;15.83;47.22;100736.03;5057283;28;45456;-78
2022/04/20 05:58:47;;;;;;;;;38.00;33.75;;;;;15.75;46.15;100700.97;5057806;28;45552;-76
2022/04/20 06:01:14;;;;;;;;;43.00;37.75;;;;;15.88;46.46;100726.25;5057574;28;45287;-77
2022/04/20 06:03:40;;;;;;;;;42.25;35.00;;;;;15.39;46.00;100645.31;5057714;28;45417;-77
2022/04/20 06:06:06;;;;;;;;;40.25;34.75;;;;;15.87;49.06;100727.16;5057261;28;45657;-79
2022/04/20 06:08:35;;;;;;;;;51.75;38.50;;;;;15.79;46.03;100692.09;5057590;28;45425;-78
2022/04/20 06:11:01;;;;;;;;;46.50;35.75;;;;;15.82;46.63;100704.34;5058478;28;45424;-78
2022/04/20 06:13:28;;;;;;;;;40.75;33.75;;;;;15.79;47.68;100700.00;5057318;28;46171;-78
2022/04/20 06:15:54;;;;;;;;;49.00;38.00;;;;;15.91;46.56;100717.38;5057211;28;45319;-77
2022/04/20 06:18:20;;;;;;;;;46.00;36.00;;;;;15.96;45.87;100726.06;5058310;28;45389;-77
2022/04/20 06:20:46;;;;;;;;;48.50;37.75;;;;;15.97;45.89;100729.59;5058534;28;45311;-78
2022/04/20 06:23:12;;;;;;;;;48.00;37.75;;;;;15.71;45.73;100685.22;5058225;28;45434;-77
2022/04/20 06:25:37;;;;;;;;;42.75;35.50;;;;;15.92;45.50;100713.81;5058499;28;45701;-77
2022/04/20 06:28:15;;;;;;;;;45.00;36.50;;;;;15.98;45.09;100728.69;5058388;28;45434;-75
2022/04/20 06:30:46;;;;;;;;;46.50;36.75;;;;;15.86;45.46;100708.69;5057976;28;45419;-78
2022/04/20 06:33:11;;;;;;;;;50.50;37.25;;;;;15.95;45.43;100732.28;5053673;28;45426;-78
2022/04/20 06:35:37;;;;;;;;;47.75;37.50;;;;;15.53;45.16;100667.94;5079414;28;45412;-77
2022/04/20 06:38:03;;;;;;;;;50.00;38.00;;;;;15.94;45.73;100722.59;5060613;28;45574;-72
2022/04/20 06:40:29;;;;;;;;;49.00;38.75;;;;;15.85;45.37;100717.50;5073281;28;46180;-77
2022/04/20 06:42:55;;;;;;;;;49.25;39.00;;;;;15.54;44.89;100653.84;5076589;28;45460;-76
2022/04/20 06:45:20;;;;;;;;;46.25;38.50;;;;;15.70;45.39;100694.91;5079683;28;45373;-77
2022/04/20 06:47:47;;;;;;;;;52.75;38.75;;;;;15.90;45.12;100723.59;5061232;28;45562;-74
2022/04/20 06:50:17;;;;;;;;;43.25;38.50;;;;;15.79;44.54;100694.72;5077649;28;45416;-77
2022/04/20 06:58:35;;;;;;;;;50.50;38.25;;;;;16.16;44.21;100720.41;5075997;28;45512;-75
2022/04/20 07:01:07;;;;;;;;;49.50;39.75;;;;;15.89;44.12;100675.13;5080281;28;45396;-74
2022/04/20 07:03:37;;;;;;;;;41.00;34.50;;;;;16.23;44.12;100729.03;5081647;28;45406;-73
2022/04/20 07:06:03;;;;;;;;;48.00;38.00;;;;;15.79;44.20;100657.75;5080071;28;45423;-76
2022/04/20 07:08:30;;;;;;;;;49.50;40.75;;;;;16.17;44.46;100727.41;5079543;28;45300;-79
2022/04/20 07:10:57;;;;;;;;;48.00;38.50;;;;;15.84;44.37;100690.22;5080521;28;45365;-79
2022/04/20 07:13:22;;;;;;;;;46.00;35.75;;;;;16.10;44.18;100734.59;5080899;28;45519;-81
2022/04/20 07:15:49;;;;;;;;;47.50;38.50;;;;;16.10;44.16;100731.94;5079581;28;45407;-78
2022/04/20 07:18:14;;;;;;;;;56.00;41.75;;;;;15.56;44.13;100658.19;5080275;28;45366;-77
2022/04/20 07:20:41;;;;;;;;;47.00;39.00;;;;;15.58;44.22;100674.00;5080230;28;45282;-77
2022/04/20 07:23:06;;;;;;;;;42.00;35.50;;;;;15.82;44.27;100699.94;5080466;28;45487;-72
2022/04/20 07:25:32;;;;;;;;;44.50;36.50;;;;;15.51;43.86;100625.72;5079661;28;46202;-77
2022/04/20 07:27:58;;;;;;;;;39.00;32.00;;;;;15.89;43.68;100672.50;5079944;28;45603;-79
2022/04/20 07:30:26;;;;;;;;;47.25;37.25;;;;;16.16;43.28;100717.75;5076562;28;45478;-75
2022/04/20 07:32:52;;;;;;;;;36.50;32.25;;;;;16.17;43.10;100714.19;5059778;28;45357;-75
2022/04/20 07:35:18;;;;;;;;;45.00;36.25;;;;;16.42;42.86;100748.00;5041978;28;46518;-75
2022/04/20 07:37:43;;;;;;;;;44.25;35.00;;;;;15.83;42.92;100640.09;5060678;28;45323;-76
2022/04/20 07:40:09;;;;;;;;;48.50;35.75;;;;;16.53;42.31;100744.22;5061145;27;45407;-73
2022/04/20 07:42:38;;;;;;;;;39.75;33.75;;;;;16.19;42.53;100698.31;5079518;28;45522;-74
2022/04/20 07:45:04;;;;;;;;;32.75;31.50;;;;;16.54;42.50;100746.00;5059642;28;45460;-73
2022/04/20 07:47:30;;;;;;;;;39.75;31.75;;;;;16.27;42.08;100693.72;5059296;28;45517;-78
2022/04/20 07:52:45;;;;;;;;;42.75;36.50;;;;;16.29;42.03;100700.72;5078175;28;45438;-74
2022/04/20 07:55:13;;;;;;;;;35.25;28.75;;;;;16.64;42.27;100751.06;5059205;28;45610;-73
2022/04/20 07:57:42;;;;;;;;;40.75;32.50;;;;;16.42;42.13;100711.91;5059478;28;45488;-76
2022/04/20 08:00:10;;;;;;;;;36.00;27.00;;;;;16.74;45.44;100752.59;5059804;28;45317;-80
2022/04/20 08:02:36;;;;;;;;;28.50;25.75;;;;;16.50;42.73;100682.63;5060335;28;45499;-78
2022/04/20 08:05:01;;;;;;;;;29.00;26.00;;;;;16.95;41.62;100720.38;5059004;28;46199;-78
2022/04/20 08:07:28;;;;;;;;;33.75;24.50;;;;;16.79;41.21;100670.53;5057369;28;45707;-79
2022/04/20 08:09:54;;;;;;;;;34.75;24.75;;;;;16.98;40.55;100681.50;5060068;28;45519;-76
2022/04/20 08:12:19;;;;;;;;;36.00;28.75;;;;;17.36;40.34;100744.03;5062774;28;45532;-77
2022/04/20 08:14:45;;;;;;;;;26.25;26.00;;;;;17.03;40.64;100661.94;5071017;28;46590;-74
2022/04/20 08:17:11;;;;;;;;;31.25;26.25;;;;;17.56;39.88;100738.25;5072502;28;45296;-73
2022/04/20 08:19:37;;;;;;;;;33.50;28.50;;;;;17.11;39.61;100645.91;5067709;28;45279;-76
2022/04/20 08:22:04;;;;;;;;;32.75;30.00;;;;;17.22;38.84;100675.56;5059802;28;45470;-72
2022/04/20 08:24:34;;;;;;;;;29.75;23.75;;;;;16.84;39.30;100603.34;5059645;28;45351;-74
2022/04/20 08:27:00;;;;;;;;;28.50;25.50;;;;;17.68;39.07;100732.59;5059661;28;45385;-73
2022/04/20 08:29:26;;;;;;;;;24.50;19.75;;;;;17.68;38.87;100716.72;5058928;28;45236;-72
2022/04/20 08:31:51;;;;;;;;;27.00;22.50;;;;;17.49;38.88;100667.81;5060951;28;45316;-71
2022/04/20 08:34:17;;;;;;;;;24.25;21.50;;;;;17.91;38.58;100728.47;5042276;28;46848;-72
2022/04/20 08:36:43;;;;;;;;;35.00;26.75;;;;;17.51;38.29;100650.97;5061296;28;45259;-78
2022/04/20 08:39:08;;;;;;;;;32.75;27.50;;;;;17.94;37.88;100734.56;5075899;28;45496;-73
2022/04/20 08:41:35;;;;;;;;;30.25;28.25;;;;;17.57;37.64;100695.81;5059359;28;45455;-77
2022/04/20 08:44:01;;;;;;;;;32.00;29.25;;;;;17.84;37.94;100756.03;5041040;28;47882;-76
2022/04/20 08:46:31;;;;;;;;;29.25;27.25;;;;;17.66;38.08;100734.44;5058901;28;45712;-76
2022/04/20 08:48:57;;;;;;;;;27.25;26.25;;;;;17.67;38.36;100743.22;5058692;28;45414;-77
2022/04/20 08:51:23;;;;;;;;;31.25;25.75;;;;;17.68;38.25;100748.50;5058992;28;45441;-76
2022/04/20 08:53:49;;;;;;;;;26.75;25.50;;;;;17.75;38.54;100749.22;5061897;28;45580;-74
2022/04/20 08:59:02;;;;;;;;;24.25;20.50;;;;;17.70;37.98;100733.44;5059006;28;46083;-77
2022/04/20 09:01:28;;;;;;;;;15.75;15.25;;;;;17.29;40.07;100641.88;5040750;28;45592;-79
2022/04/20 09:03:55;;;;;;;;;21.75;20.50;;;;;17.91;39.19;100713.44;5056793;28;45481;-76
2022/04/20 09:06:21;;;;;;;;;21.75;15.75;;;;;18.01;39.32;100701.66;5058199;28;45291;-80
2022/04/20 09:08:46;;;;;;;;;22.50;21.00;;;;;18.07;38.10;100697.09;5058234;28;45415;-78
2022/04/20 09:11:12;;;;;;;;;25.00;23.75;;;;;18.38;37.55;100729.72;5058962;28;45300;-73
2022/04/20 09:13:44;;;;;;;;;23.00;20.50;;;;;18.38;37.53;100744.75;5057866;28;46589;-75
2022/04/20 09:16:12;;;;;;;;;27.50;21.75;;;;;18.35;38.27;100726.31;5058385;28;45370;-77
2022/04/20 09:18:40;;;;;;;;;25.33;21.67;;;;;18.57;37.93;100737.97;5058277;28;45279;-76
2022/04/20 09:21:07;;;;;;;;;31.00;26.25;;;;;18.54;37.01;100721.31;5056853;28;45711;-76
2022/04/20 09:23:34;;;;;;;;;28.25;25.25;;;;;18.55;36.90;100739.81;5057462;28;45636;-77
2022/04/20 09:26:23;;;;;;;;;25.00;23.50;;;;;18.52;36.94;100739.91;5058438;28;45355;-77
2022/04/20 09:29:06;;;;;;;;;23.25;20.25;;;;;18.56;37.57;100738.91;5058872;28;45307;-78
2022/04/20 09:31:45;;;;;;;;;21.75;20.25;;;;;18.56;37.14;100733.59;5041169;28;45405;-77
2022/04/20 09:34:33;;;;;;;;;22.67;20.33;;;;;18.61;38.31;100736.09;5041143;28;45393;-78
2022/04/20 09:37:10;;;;;;;;;18.33;18.00;;;;;18.76;38.86;100727.69;5067692;28;45453;-78
2022/04/20 09:39:35;;;;;;;;;26.25;26.00;;;;;18.43;37.13;100650.88;5077187;28;45291;-79
2022/04/20 09:42:05;;;;;;;;;25.00;20.67;;;;;18.67;37.13;100698.75;5076827;28;45444;-75
2022/04/20 09:44:31;;;;;;;;;25.33;21.33;;;;;18.83;36.76;100723.06;5077790;28;46184;-76
2022/04/20 09:49:52;;;;;;;;;21.67;19.00;;;;;18.74;36.93;100723.31;5076196;28;45350;-73
2022/04/20 09:52:18;;;;;;;;;21.00;19.00;;;;;18.84;37.99;100719.50;5075368;28;45479;-77
2022/04/20 09:54:55;;;;;;;;;16.33;15.67;;;;;18.66;36.72;100662.53;5076012;28;45567;-74
2022/04/20 09:57:21;;;;;;;;;24.33;22.33;;;;;18.65;36.37;100637.81;5075020;28;45482;-74
2022/04/20 10:00:02;;;;;;;;;23.67;17.67;;;;;18.76;36.60;100639.22;5075813;28;45349;-73
2022/04/20 10:02:29;;;;;;;;;25.00;23.00;;;;;18.77;36.06;100636.56;5057068;28;45469;-74
2022/04/20 10:04:56;;;;;;;;;22.00;21.67;;;;;18.97;36.37;100682.78;5075564;28;46469;-73
2022/04/20 10:07:21;;;;;;;;;23.33;21.33;;;;;19.08;36.40;100688.63;5074928;28;45497;-74
2022/04/20 10:09:47;;;;;;;;;18.67;17.33;;;;;19.10;36.53;100683.22;5076190;28;45483;-75
2022/04/20 10:12:16;;;;;;;;;17.00;15.00;;;;;19.43;36.49;100710.41;5075081;28;45470;-72
2022/04/20 10:17:30;;;;;;;;;383.80;343.00;;;;;19.60;38.30;100689.44;5076032;28;45478;-75
2022/04/20 10:19:57;;;;;;;;;437.75;371.25;;;;;19.67;37.18;100677.66;5057024;28;45376;-74
2022/04/20 10:22:25;;;;;;;;;351.60;306.40;;;;;19.50;36.86;100608.34;5074232;28;45423;-73
2022/04/20 10:24:55;;;;;;;;;258.25;215.50;;;;;20.15;36.98;100699.84;5079851;28;45555;-73
2022/04/20 10:27:51;;;;;;;;;236.00;201.75;;;;;20.29;38.27;100692.19;5061532;28;45458;-75
2022/04/20 10:30:25;;;;;;;;;81.00;69.50;;;;;19.90;36.13;100605.06;5052188;28;45742;-74
2022/04/20 10:32:59;;;;;;;;;80.50;68.75;;;;;20.31;37.00;100669.06;5059102;28;45331;-77
2022/04/20 10:35:25;;;;;;;;;57.75;46.00;;;;;20.53;36.38;100689.50;5080524;28;46344;-75
2022/04/20 10:38:11;;;;;;;;;60.00;47.00;;;;;20.54;35.93;100664.59;5080487;28;45324;-74
2022/04/20 10:40:58;;;;;;;;;38.75;33.75;;;;;20.75;35.67;100676.22;5080917;28;45440;-74
2022/04/20 10:43:27;;;;;;;;;22.67;20.67;;;;;20.43;35.44;100609.19;5083555;28;45302;-71
2022/04/20 10:46:14;;;;;;;;;22.33;18.33;;;;;20.96;35.21;100677.13;5086782;28;45429;-72
2022/04/20 10:49:01;;;;;;;;;17.67;14.00;;;;;20.58;34.34;100599.72;5086437;28;45248;-72
2022/04/20 10:51:30;;;;;;;;;15.33;13.00;;;;;20.94;34.62;100666.53;5081277;28;45389;-73
2022/04/20 10:54:18;;;;;;;;;13.67;11.00;;;;;21.03;34.84;100657.28;5084159;28;45319;-75
2022/04/20 10:57:02;;;;;;;;;10.33;9.33;;;;;21.16;34.83;100653.16;5085744;28;45455;-75
2022/04/20 10:59:29;;;;;;;;;15.00;12.33;;;;;20.88;34.01;100594.03;5089915;28;45387;-76
2022/04/20 11:02:03;;;;;;;;;24.00;21.00;;;;;21.33;34.58;100655.09;5095359;28;45404;-72
2022/04/20 11:04:42;;;;;;;;;23.33;19.33;;;;;21.44;33.90;100651.13;5092927;28;45500;-76
2022/04/20 11:07:07;;;;;;;;;16.67;15.67;;;;;21.54;33.54;100645.28;5088108;28;45285;-74
2022/04/20 11:09:42;;;;;;;;;13.33;13.33;;;;;21.62;33.49;100636.97;5083120;28;45382;-76
2022/04/20 11:21:04;;;;;;;;;7.33;7.00;;;;;21.46;32.03;100628.81;5081741;28;45282;-74
2022/04/20 11:23:57;;;;;;;;;8.33;8.33;;;;;21.35;32.40;100629.22;5082810;28;45306;-74
2022/04/20 11:26:35;;;;;;;;;46.50;36.25;;;;;21.28;32.98;100629.56;5094083;28;45285;-71
2022/04/20 11:29:09;;;;;;;;;37.25;31.75;;;;;21.29;32.84;100631.31;5080958;28;47277;-74
2022/04/20 11:31:42;;;;;;;;;12.67;12.00;;;;;21.23;32.08;100604.94;5080025;27;45374;-75
2022/04/20 11:34:09;;;;;;;;;10.67;9.00;;;;;21.05;31.54;100567.56;5070091;28;45296;-73
2022/04/20 11:36:42;;;;;;;;;8.67;7.00;;;;;20.59;30.48;100489.69;5080644;28;45354;-74
2022/04/20 11:39:13;;;;;;;;;7.00;7.00;;;;;21.36;31.09;100598.16;5079917;28;45692;-74
2022/04/20 11:41:53;;;;;;;;;8.00;7.33;;;;;21.67;30.67;100628.78;5061793;28;45402;-74
2022/04/20 11:44:31;;;;;;;;;7.33;7.00;;;;;21.85;30.13;100624.38;5080111;28;45433;-76
2022/04/20 11:47:05;;;;;;;;;9.00;6.00;;;;;21.83;29.48;100605.81;5097626;27;45526;-76
2022/04/20 11:49:42;;;;;;;;;5.33;5.33;;;;;21.57;29.16;100559.91;5082105;27;47581;-76